createdAt,value
2022-11-24T00:01:11.813Z,95472.78
2022-11-24T00:03:38.465Z,95468.25
2022-11-24T00:06:07.731Z,95474.38
2022-11-24T00:08:35.380Z,95470.09
2022-11-24T00:11:11.094Z,95468.19
2022-11-24T00:13:40.840Z,95466.84
2022-11-24T00:16:09.076Z,95460.97
2022-11-24T00:18:35.696Z,95461.31
2022-11-24T00:21:02.313Z,95461.03
2022-11-24T00:23:28.909Z,95460.44
2022-11-24T00:25:55.782Z,95461.25
2022-11-24T00:28:22.382Z,95457.50
2022-11-24T00:30:49.034Z,95467.34
2022-11-24T00:33:15.651Z,95464.72
2022-11-24T00:35:42.235Z,95466.88
2022-11-24T00:38:08.833Z,95479.13
2022-11-24T00:40:35.416Z,95480.41
2022-11-24T00:43:02.050Z,95470.31
2022-11-24T00:45:28.601Z,95480.13
2022-11-24T00:47:55.190Z,95491.91
2022-11-24T00:50:21.758Z,95492.91
2022-11-24T00:52:48.357Z,95485.78
2022-11-24T00:55:15.038Z,95491.88
2022-11-24T00:57:41.617Z,95491.88
2022-11-24T01:00:08.781Z,95486.56
2022-11-24T01:02:35.384Z,95490.81
2022-11-24T01:05:03.374Z,95483.41
2022-11-24T01:07:30.931Z,95484.97
2022-11-24T01:09:57.596Z,95488.34
2022-11-24T01:12:24.202Z,95491.56
2022-11-24T01:14:50.906Z,95501.06
2022-11-24T01:17:17.576Z,95496.09
2022-11-24T01:19:45.651Z,95499.06
2022-11-24T01:22:12.238Z,95498.53
2022-11-24T01:24:38.869Z,95503.75
2022-11-24T01:27:05.461Z,95502.75
2022-11-24T01:29:32.192Z,95508.16
2022-11-24T01:31:58.768Z,95503.72
2022-11-24T01:34:25.513Z,95503.50
2022-11-24T01:36:52.077Z,95502.97
2022-11-24T01:39:18.707Z,95510.91
2022-11-24T01:41:45.283Z,95504.06
2022-11-24T01:44:27.188Z,95507.16
2022-11-24T01:47:31.750Z,95513.53
2022-11-24T01:50:01.905Z,95515.16
2022-11-24T01:52:38.319Z,95519.69
2022-11-24T01:55:10.249Z,95507.28
2022-11-24T01:57:43.569Z,95512.06
2022-11-24T02:00:13.408Z,95516.31
2022-11-24T02:02:42.024Z,95494.81
2022-11-24T02:05:18.884Z,95508.63
2022-11-24T02:07:47.179Z,95511.53
2022-11-24T02:10:15.919Z,95512.09
2022-11-24T02:12:46.388Z,95501.72
2022-11-24T02:15:15.575Z,95504.13
2022-11-24T02:17:42.203Z,95517.38
2022-11-24T02:20:10.625Z,95507.56
2022-11-24T02:23:01.844Z,95505.44
2022-11-24T02:25:44.610Z,95514.19
2022-11-24T02:28:16.057Z,95511.50
2022-11-24T02:30:43.153Z,95512.03
2022-11-24T02:33:11.637Z,95518.09
2022-11-24T02:35:38.742Z,95523.69
2022-11-24T02:38:05.372Z,95528.97
2022-11-24T02:40:32.106Z,95534.78
2022-11-24T02:43:11.155Z,95552.88
2022-11-24T02:45:37.781Z,95558.19
2022-11-24T02:48:04.822Z,95558.66
2022-11-24T02:50:31.455Z,95551.97
2022-11-24T02:52:58.063Z,95547.16
2022-11-24T02:55:24.874Z,95559.38
2022-11-24T02:57:51.490Z,95558.59
2022-11-24T03:00:18.723Z,95568.66
2022-11-24T03:02:45.501Z,95573.16
2022-11-24T03:05:12.829Z,95584.59
2022-11-24T03:07:39.525Z,95596.81
2022-11-24T03:10:06.680Z,95601.56
2022-11-24T03:12:33.258Z,95606.34
2022-11-24T03:14:59.889Z,95602.59
2022-11-24T03:17:26.599Z,95598.84
2022-11-24T03:19:53.181Z,95612.72
2022-11-24T03:22:19.741Z,95611.38
2022-11-24T03:24:46.430Z,95625.75
2022-11-24T03:27:13.031Z,95620.59
2022-11-24T03:29:39.668Z,95627.97
2022-11-24T03:32:06.301Z,95636.00
2022-11-24T03:34:33.185Z,95636.84
2022-11-24T03:39:26.629Z,95640.25
2022-11-24T03:41:53.572Z,95643.44
2022-11-24T03:44:20.146Z,95644.50
2022-11-24T03:46:46.810Z,95642.69
2022-11-24T03:49:13.401Z,95650.34
2022-11-24T03:51:39.996Z,95640.25
2022-11-24T03:54:06.811Z,95646.16
2022-11-24T03:56:33.401Z,95644.03
2022-11-24T03:59:00.010Z,95647.28
2022-11-24T04:01:26.713Z,95649.44
2022-11-24T04:03:53.362Z,95647.78
2022-11-24T04:06:19.926Z,95661.56
2022-11-24T04:08:46.553Z,95653.03
2022-11-24T04:11:33.074Z,95666.25
2022-11-24T04:13:59.686Z,95670.56
2022-11-24T04:16:26.428Z,95669.78
2022-11-24T04:18:53.653Z,95674.88
2022-11-24T04:21:21.174Z,95663.16
2022-11-24T04:23:47.777Z,95670.31
2022-11-24T04:26:14.416Z,95665.84
2022-11-24T04:28:40.986Z,95672.03
2022-11-24T04:31:07.697Z,95674.44
2022-11-24T04:33:34.390Z,95675.50
2022-11-24T04:36:00.969Z,95675.09
2022-11-24T04:39:22.852Z,95675.41
2022-11-24T04:41:14.296Z,95670.56
2022-11-24T04:43:40.993Z,95671.69
2022-11-24T04:46:10.441Z,95677.25
2022-11-24T04:48:37.198Z,95689.75
2022-11-24T04:51:06.884Z,95678.09
2022-11-24T04:53:33.597Z,95689.06
2022-11-24T04:56:05.757Z,95683.97
2022-11-24T04:58:32.602Z,95681.56
2022-11-24T05:00:59.178Z,95663.72
2022-11-24T05:03:25.905Z,95694.84
2022-11-24T05:05:52.495Z,95709.97
2022-11-24T05:08:19.061Z,95709.91
2022-11-24T05:10:45.640Z,95704.28
2022-11-24T05:13:13.460Z,95707.47
2022-11-24T05:15:41.394Z,95714.69
2022-11-24T05:18:11.122Z,95719.97
2022-11-24T05:20:38.243Z,95718.31
2022-11-24T05:23:07.457Z,95719.88
2022-11-24T05:25:35.302Z,95723.09
2022-11-24T05:28:08.793Z,95725.75
2022-11-24T05:30:39.627Z,95721.47
2022-11-24T05:33:19.217Z,95724.88
2022-11-24T05:35:46.937Z,95728.97
2022-11-24T05:38:13.900Z,95725.75
2022-11-24T05:40:40.718Z,95728.97
2022-11-24T05:43:11.986Z,95734.25
2022-11-24T05:45:38.945Z,95727.88
2022-11-24T05:48:07.516Z,95734.00
2022-11-24T05:50:35.169Z,95738.75
2022-11-24T05:53:04.192Z,95747.34
2022-11-24T05:55:31.125Z,95749.75
2022-11-24T05:58:00.282Z,95756.09
2022-11-24T06:00:27.718Z,95760.81
2022-11-24T06:02:54.556Z,95757.69
2022-11-24T06:05:21.790Z,95766.19
2022-11-24T06:07:48.464Z,95762.94
2022-11-24T06:10:17.085Z,95773.06
2022-11-24T06:12:44.061Z,95775.22
2022-11-24T06:15:11.336Z,95777.28
2022-11-24T06:17:38.625Z,95781.03
2022-11-24T06:20:07.245Z,95782.69
2022-11-24T06:22:33.993Z,95785.00
2022-11-24T06:25:00.603Z,95792.19
2022-11-24T06:27:27.469Z,95799.06
2022-11-24T06:29:54.068Z,95795.63
2022-11-24T06:32:20.733Z,95798.28
2022-11-24T06:34:47.339Z,95793.56
2022-11-24T06:37:13.966Z,95801.28
2022-11-24T06:39:40.557Z,95806.06
2022-11-24T06:42:07.154Z,95809.28
2022-11-24T06:44:33.934Z,95806.13
2022-11-24T06:47:00.909Z,95812.56
2022-11-24T06:49:27.530Z,95805.59
2022-11-24T06:51:56.932Z,95812.03
2022-11-24T06:54:23.553Z,95806.75
2022-11-24T06:56:50.198Z,95814.75
2022-11-24T06:59:18.900Z,95825.94
2022-11-24T07:01:46.932Z,95825.38
2022-11-24T07:04:13.853Z,95823.72
2022-11-24T07:06:41.376Z,95833.34
2022-11-24T07:09:09.685Z,95829.06
2022-11-24T07:11:36.861Z,95836.59
2022-11-24T07:14:04.050Z,95834.41
2022-11-24T07:16:31.290Z,95834.63
2022-11-24T07:18:58.433Z,95843.22
2022-11-24T07:21:26.288Z,95841.81
2022-11-24T07:23:54.743Z,95844.50
2022-11-24T07:26:22.464Z,95843.97
2022-11-24T07:28:49.794Z,95851.91
2022-11-24T07:31:19.065Z,95855.66
2022-11-24T07:33:53.962Z,95858.38
2022-11-24T07:36:20.976Z,95857.81
2022-11-24T07:38:48.341Z,95854.03
2022-11-24T07:41:16.859Z,95849.78
2022-11-24T07:43:43.507Z,95855.09
2022-11-24T07:46:13.186Z,95852.44
2022-11-24T07:48:39.971Z,95856.66
2022-11-24T07:51:08.018Z,95859.34
2022-11-24T07:53:35.309Z,95865.44
2022-11-24T07:56:03.410Z,95863.00
2022-11-24T07:58:33.196Z,95853.94
2022-11-24T08:01:00.945Z,95869.38
2022-11-24T08:03:27.996Z,95866.69
2022-11-24T08:08:46.321Z,95866.69
2022-11-24T08:11:16.090Z,95861.53
2022-11-24T08:13:43.493Z,95861.75
2022-11-24T08:16:13.420Z,95875.09
2022-11-24T08:18:40.416Z,95873.97
2022-11-24T08:21:07.964Z,95878.44
2022-11-24T08:23:35.083Z,95875.97
2022-11-24T08:26:11.144Z,95881.81
2022-11-24T08:28:38.319Z,95880.25
2022-11-24T08:31:10.507Z,95885.59
2022-11-24T08:33:37.798Z,95882.88
2022-11-24T08:36:09.820Z,95880.25
2022-11-24T08:38:37.006Z,95882.94
2022-11-24T08:41:09.667Z,95885.28
2022-11-24T08:43:36.399Z,95878.66
2022-11-24T08:46:05.313Z,95877.53
2022-11-24T08:48:32.482Z,95873.47
2022-11-24T08:50:59.739Z,95880.19
2022-11-24T08:53:26.467Z,95879.06
2022-11-24T08:55:53.240Z,95888.16
2022-11-24T08:58:19.811Z,95884.06
2022-11-24T09:00:46.423Z,95870.91
2022-11-24T09:03:13.016Z,95880.09
2022-11-24T09:05:54.961Z,95879.22
2022-11-24T09:08:21.552Z,95868.41
2022-11-24T09:10:48.313Z,95863.53
2022-11-24T09:13:14.957Z,95863.34
2022-11-24T09:15:41.573Z,95867.56
2022-11-24T09:18:08.228Z,95864.88
2022-11-24T09:20:34.939Z,95875.00
2022-11-24T09:23:01.565Z,95872.34
2022-11-24T09:25:28.149Z,95872.84
2022-11-24T09:27:54.856Z,95873.88
2022-11-24T09:30:21.569Z,95877.53
2022-11-24T09:32:48.205Z,95869.44
2022-11-24T09:35:14.813Z,95871.50
2022-11-24T09:37:43.454Z,95871.94
2022-11-24T09:40:14.190Z,95865.03
2022-11-24T09:43:01.833Z,95861.13
2022-11-24T09:46:05.327Z,95859.03
2022-11-24T09:48:44.083Z,95849.88
2022-11-24T09:51:13.661Z,95861.59
2022-11-24T09:53:57.188Z,95868.41
2022-11-24T09:56:27.796Z,95864.13
2022-11-24T09:59:16.159Z,95868.50
2022-11-24T10:01:44.524Z,95863.34
2022-11-24T10:04:28.355Z,95876.34
2022-11-24T10:07:13.263Z,95870.75
2022-11-24T10:09:51.779Z,95862.31
2022-11-24T10:12:46.226Z,95870.16
2022-11-24T10:15:25.794Z,95873.06
2022-11-24T10:18:04.265Z,95864.69
2022-11-24T10:20:41.498Z,95867.19
2022-11-24T10:23:23.199Z,95869.75
2022-11-24T10:25:59.027Z,95869.19
2022-11-24T10:28:35.972Z,95866.22
2022-11-24T10:31:29.675Z,95869.06
2022-11-24T10:33:58.054Z,95874.75
2022-11-24T10:37:17.085Z,95870.66
2022-11-24T10:40:00.402Z,95877.94
2022-11-24T10:42:33.653Z,95865.63
2022-11-24T10:45:17.747Z,95883.63
2022-11-24T10:47:45.567Z,95890.38
2022-11-24T10:50:32.055Z,95880.50
2022-11-24T10:53:05.579Z,95888.59
2022-11-24T10:55:57.150Z,95891.38
2022-11-24T10:58:38.444Z,95887.31
2022-11-24T11:01:14.464Z,95890.59
2022-11-24T11:03:55.669Z,95894.72
2022-11-24T11:06:27.719Z,95883.91
2022-11-24T11:09:06.285Z,95888.09
2022-11-24T11:11:33.878Z,95882.56
2022-11-24T11:14:04.230Z,95881.09
2022-11-24T11:16:41.568Z,95888.84
2022-11-24T11:19:51.411Z,95875.78
2022-11-24T11:22:31.856Z,95870.28
2022-11-24T11:25:10.476Z,95878.75
2022-11-24T11:27:38.609Z,95882.31
2022-11-24T11:36:12.072Z,95885.38
2022-11-24T11:38:40.406Z,95870.41
2022-11-24T11:41:14.169Z,95871.47
2022-11-24T11:43:41.730Z,95872.88
2022-11-24T11:46:08.372Z,95869.53
2022-11-24T11:48:43.150Z,95871.28
2022-11-24T11:51:25.931Z,95874.09
2022-11-24T11:53:58.769Z,95869.09
2022-11-24T11:56:33.775Z,95874.25
2022-11-24T11:59:22.256Z,95868.00
2022-11-24T12:02:15.023Z,95877.22
2022-11-24T12:04:53.022Z,95871.25
2022-11-24T12:07:41.505Z,95867.94
2022-11-24T12:10:40.116Z,95865.28
2022-11-24T12:13:16.061Z,95865.56
2022-11-24T12:15:46.240Z,95868.06
2022-11-24T12:19:00.234Z,95877.03
2022-11-24T12:21:34.317Z,95873.22
2022-11-24T12:24:14.858Z,95885.81
2022-11-24T12:26:48.035Z,95880.06
2022-11-24T12:29:20.452Z,95878.47
2022-11-24T12:32:07.280Z,95871.34
2022-11-24T12:34:54.720Z,95878.06
2022-11-24T12:37:27.246Z,95873.28
2022-11-24T12:40:03.754Z,95864.16
2022-11-24T12:42:33.382Z,95868.19
2022-11-24T12:45:13.194Z,95865.63
2022-11-24T12:47:48.772Z,95869.47
2022-11-24T12:50:21.653Z,95872.66
2022-11-24T12:52:55.581Z,95876.63
2022-11-24T12:55:26.348Z,95866.56
2022-11-24T12:58:09.388Z,95869.06
2022-11-24T13:01:11.566Z,95872.44
2022-11-24T13:03:53.446Z,95862.63
2022-11-24T13:06:52.320Z,95872.34
2022-11-24T13:09:19.522Z,95891.59
2022-11-24T13:11:57.916Z,95882.72
2022-11-24T13:14:33.204Z,95901.84
2022-11-24T13:19:49.917Z,95910.88
2022-11-24T13:22:24.346Z,95926.53
2022-11-24T13:25:24.939Z,95931.91
2022-11-24T13:27:59.571Z,95947.13
2022-11-24T13:30:35.308Z,95945.56
2022-11-24T13:33:16.132Z,95951.31
2022-11-24T13:36:04.427Z,95952.66
2022-11-24T13:38:46.416Z,95957.50
2022-11-24T13:41:31.563Z,95964.94
2022-11-24T13:44:16.386Z,95963.22
2022-11-24T13:47:05.828Z,95978.63
2022-11-24T13:49:41.099Z,95982.38
2022-11-24T13:52:38.687Z,95981.47
2022-11-24T13:55:15.590Z,95999.56
2022-11-24T13:57:51.002Z,95990.06
2022-11-24T14:00:34.012Z,95994.88
2022-11-24T14:03:00.647Z,95997.81
2022-11-24T14:05:39.964Z,95987.94
2022-11-24T14:08:08.375Z,95997.59
2022-11-24T14:10:37.430Z,95998.16
2022-11-24T14:13:26.185Z,96000.28
2022-11-24T14:16:08.990Z,96011.47
2022-11-24T14:18:38.321Z,96011.78
2022-11-24T14:21:20.022Z,96017.38
2022-11-24T14:23:53.448Z,96016.88
2022-11-24T14:26:35.439Z,96027.00
2022-11-24T14:29:14.088Z,96034.44
2022-11-24T14:31:41.169Z,96031.78
2022-11-24T14:34:15.429Z,96038.47
2022-11-24T14:36:42.607Z,96041.94
2022-11-24T14:39:15.209Z,96039.53
2022-11-24T14:41:52.614Z,96047.81
2022-11-24T14:44:25.256Z,96056.09
2022-11-24T14:47:02.109Z,96054.16
2022-11-24T14:49:29.235Z,96050.19
2022-11-24T14:52:02.584Z,96057.41
2022-11-24T14:54:30.560Z,96060.63
2022-11-24T14:57:01.963Z,96068.59
2022-11-24T14:59:29.989Z,96074.47
2022-11-24T15:01:57.692Z,96084.34
2022-11-24T15:05:00.848Z,96082.47
2022-11-24T15:07:24.426Z,96082.47
2022-11-24T15:09:52.708Z,96081.94
2022-11-24T15:12:37.808Z,96085.38
2022-11-24T15:15:15.924Z,96084.09
2022-11-24T15:17:51.770Z,96092.59
2022-11-24T15:20:26.269Z,96091.53
2022-11-24T15:23:20.023Z,96093.66
2022-11-24T15:25:46.601Z,96107.00
2022-11-24T15:28:13.345Z,96104.03
2022-11-24T15:30:39.971Z,96113.66
2022-11-24T15:33:16.092Z,96105.91
2022-11-24T15:35:43.569Z,96107.00
2022-11-24T15:38:10.302Z,96111.00
2022-11-24T15:40:38.289Z,96126.16
2022-11-24T15:43:35.282Z,96126.94
2022-11-24T15:46:03.538Z,96134.16
2022-11-24T15:48:30.632Z,96142.72
2022-11-24T15:50:58.169Z,96136.34
2022-11-24T15:53:30.438Z,96143.28
2022-11-24T15:55:57.809Z,96143.28
2022-11-24T15:58:24.520Z,96144.34
2022-11-24T16:00:53.572Z,96151.81
2022-11-24T16:06:17.850Z,96161.44
2022-11-24T16:08:48.726Z,96161.63
2022-11-24T16:11:15.368Z,96160.31
2022-11-24T16:13:44.556Z,96158.72
2022-11-24T16:16:15.663Z,96161.44
2022-11-24T16:18:42.658Z,96159.78
2022-11-24T16:21:10.643Z,96166.22
2022-11-24T16:23:37.818Z,96170.47
2022-11-24T16:26:05.359Z,96164.59
2022-11-24T16:28:32.296Z,96165.69
2022-11-24T16:30:58.884Z,96167.00
2022-11-24T16:33:25.525Z,96175.81
2022-11-24T16:35:52.115Z,96183.28
2022-11-24T16:38:19.970Z,96181.69
2022-11-24T16:40:54.416Z,96200.31
2022-11-24T16:43:21.167Z,96192.88
2022-11-24T16:46:04.473Z,96199.28
2022-11-24T16:48:35.884Z,96192.38
2022-11-24T16:51:07.043Z,96189.69
2022-11-24T16:53:33.637Z,96191.81
2022-11-24T16:56:00.253Z,96214.75
2022-11-24T16:58:26.841Z,96212.81
2022-11-24T17:00:53.525Z,96227.97
2022-11-24T17:03:20.253Z,96226.94
2022-11-24T17:06:02.465Z,96220.22
2022-11-24T17:08:33.927Z,96208.72
2022-11-24T17:11:08.378Z,96216.22
2022-11-24T17:13:35.211Z,96220.97
2022-11-24T17:16:13.570Z,96223.13
2022-11-24T17:18:40.942Z,96208.91
2022-11-24T17:21:12.118Z,96206.91
2022-11-24T17:23:38.857Z,96210.69
2022-11-24T17:26:08.892Z,96216.38
2022-11-24T17:28:36.216Z,96221.19
2022-11-24T17:31:10.365Z,96218.81
2022-11-24T17:33:37.074Z,96227.44
2022-11-24T17:36:05.209Z,96231.75
2022-11-24T17:38:31.952Z,96239.28
2022-11-24T17:40:58.666Z,96245.16
2022-11-24T17:43:25.329Z,96238.81
2022-11-24T17:45:56.144Z,96242.66
2022-11-24T17:48:23.417Z,96242.09
2022-11-24T17:51:14.504Z,96247.44
2022-11-24T17:53:43.398Z,96244.84
2022-11-24T17:56:15.436Z,96245.97
2022-11-24T17:58:43.233Z,96251.84
2022-11-24T18:01:11.359Z,96243.00
2022-11-24T18:03:42.142Z,96244.09
2022-11-24T18:06:13.986Z,96233.94
2022-11-24T18:08:42.910Z,96237.66
2022-11-24T18:11:27.316Z,96230.69
2022-11-24T18:14:01.041Z,96237.06
2022-11-24T18:16:30.552Z,96246.06
2022-11-24T18:19:14.655Z,96244.47
2022-11-24T18:21:42.347Z,96235.56
2022-11-24T18:24:10.982Z,96241.41
2022-11-24T18:26:38.810Z,96243.16
2022-11-24T18:29:05.543Z,96252.53
2022-11-24T18:31:34.329Z,96254.38
2022-11-24T18:34:02.170Z,96250.81
2022-11-24T18:36:30.707Z,96244.56
2022-11-24T18:39:01.255Z,96242.22
2022-11-24T18:41:27.811Z,96239.31
2022-11-24T18:43:54.410Z,96237.16
2022-11-24T18:46:21.065Z,96246.69
2022-11-24T18:48:47.801Z,96247.31
2022-11-24T18:51:14.744Z,96244.91
2022-11-24T18:53:43.175Z,96250.00
2022-11-24T18:56:14.026Z,96255.06
2022-11-24T18:58:40.710Z,96261.44
2022-11-24T19:01:12.963Z,96251.06
2022-11-24T19:03:47.854Z,96279.88
2022-11-24T19:06:32.362Z,96296.13
2022-11-24T19:09:01.440Z,96292.53
2022-11-24T19:11:34.112Z,96285.63
2022-11-24T19:14:01.915Z,96273.28
2022-11-24T19:16:28.579Z,96272.97
2022-11-24T19:18:59.922Z,96275.97
2022-11-24T19:21:27.729Z,96255.03
2022-11-24T19:23:55.808Z,96265.41
2022-11-24T19:26:25.197Z,96269.06
2022-11-24T19:28:51.830Z,96268.00
2022-11-24T19:31:19.830Z,96256.28
2022-11-24T19:33:46.709Z,96251.97
2022-11-24T19:36:19.013Z,96253.16
2022-11-24T19:38:53.726Z,96252.59
2022-11-24T19:41:22.415Z,96262.25
2022-11-24T19:43:49.209Z,96264.31
2022-11-24T19:46:18.520Z,96258.72
2022-11-24T19:48:50.218Z,96258.16
2022-11-24T19:51:20.084Z,96263.56
2022-11-24T19:53:47.811Z,96254.56
2022-11-24T19:56:20.121Z,96258.25
2022-11-24T19:58:47.649Z,96257.72
2022-11-24T20:01:18.403Z,96267.78
2022-11-24T20:03:46.533Z,96278.66
2022-11-24T20:06:14.510Z,96263.53
2022-11-24T20:08:42.479Z,96265.75
2022-11-24T20:11:11.977Z,96267.91
2022-11-24T20:13:40.258Z,96271.72
2022-11-24T20:16:10.316Z,96272.34
2022-11-24T20:18:42.208Z,96277.63
2022-11-24T20:21:12.541Z,96287.28
2022-11-24T20:23:39.885Z,96289.19
2022-11-24T20:26:10.830Z,96276.13
2022-11-24T20:28:37.781Z,96278.25
2022-11-24T20:31:07.189Z,96261.72
2022-11-24T20:33:35.077Z,96263.56
2022-11-24T20:36:06.889Z,96260.63
2022-11-24T20:38:34.604Z,96263.84
2022-11-24T20:41:09.429Z,96266.50
2022-11-24T20:43:37.043Z,96270.41
2022-11-24T20:46:09.666Z,96266.44
2022-11-24T20:48:36.897Z,96267.56
2022-11-24T20:51:12.635Z,96262.22
2022-11-24T20:53:39.623Z,96264.66
2022-11-24T20:56:29.169Z,96261.72
2022-11-24T20:58:56.428Z,96263.34
2022-11-24T21:01:26.896Z,96259.06
2022-11-24T21:03:57.440Z,96251.59
2022-11-24T21:06:25.311Z,96262.78
2022-11-24T21:08:52.455Z,96265.47
2022-11-24T21:11:20.280Z,96269.75
2022-11-24T21:13:48.840Z,96272.38
2022-11-24T21:16:16.827Z,96268.66
2022-11-24T21:18:45.138Z,96261.72
2022-11-24T21:21:13.127Z,96265.47
2022-11-24T21:23:40.236Z,96270.28
2022-11-24T21:26:13.132Z,96267.88
2022-11-24T21:28:43.000Z,96269.47
2022-11-24T21:31:12.226Z,96269.75
2022-11-24T21:33:44.899Z,96268.66
2022-11-24T21:36:12.858Z,96265.72
2022-11-24T21:38:39.446Z,96260.66
2022-11-24T21:41:08.259Z,96267.06
2022-11-24T21:43:35.381Z,96269.19
2022-11-24T21:46:03.794Z,96271.88
2022-11-24T21:48:31.695Z,96264.91
2022-11-24T21:50:59.735Z,96267.59
2022-11-24T21:53:29.672Z,96263.31
2022-11-24T21:55:57.380Z,96268.88
2022-11-24T21:58:24.604Z,96268.88
2022-11-24T22:00:51.627Z,96267.56
2022-11-24T22:03:19.708Z,96268.09
2022-11-24T22:05:56.966Z,96275.28
2022-11-24T22:08:24.885Z,96269.28
2022-11-24T22:10:52.431Z,96276.00
2022-11-24T22:13:20.084Z,96266.34
2022-11-24T22:15:46.706Z,96275.38
2022-11-24T22:18:13.310Z,96277.97
2022-11-24T22:20:39.887Z,96276.47
2022-11-24T22:23:06.460Z,96276.50
2022-11-24T22:25:33.663Z,96273.81
2022-11-24T22:28:00.389Z,96275.44
2022-11-24T22:30:26.965Z,96265.84
2022-11-24T22:32:54.487Z,96269.59
2022-11-24T22:35:22.013Z,96274.91
2022-11-24T22:37:48.588Z,96277.31
2022-11-24T22:40:15.255Z,96271.72
2022-11-24T22:42:41.884Z,96273.88
2022-11-24T22:45:08.974Z,96270.94
2022-11-24T22:47:35.554Z,96277.03
2022-11-24T22:50:02.313Z,96268.47
2022-11-24T22:52:28.894Z,96269.03
2022-11-24T22:54:55.492Z,96268.50
2022-11-24T22:57:22.059Z,96261.59
2022-11-24T22:59:48.629Z,96262.34
2022-11-24T23:02:15.192Z,96266.59
2022-11-24T23:04:41.781Z,96264.97
2022-11-24T23:07:08.409Z,96264.94
2022-11-24T23:09:35.025Z,96269.19
2022-11-24T23:12:01.599Z,96257.72
2022-11-24T23:14:28.878Z,96260.69
2022-11-24T23:16:55.482Z,96269.22
2022-11-24T23:19:22.156Z,96264.94
2022-11-24T23:21:48.846Z,96268.41
2022-11-24T23:24:15.429Z,96258.22
2022-11-24T23:26:42.109Z,96266.72
2022-11-24T23:29:10.351Z,96256.09
2022-11-24T23:31:39.970Z,96259.88
2022-11-24T23:34:07.122Z,96258.22
2022-11-24T23:36:33.713Z,96253.94
2022-11-24T23:39:05.402Z,96252.88
2022-11-24T23:41:32.622Z,96243.81
2022-11-24T23:44:00.157Z,96250.75
2022-11-24T23:46:27.981Z,96253.31
2022-11-24T23:48:56.820Z,96252.03
2022-11-24T23:51:26.343Z,96241.06
2022-11-24T23:53:53.773Z,96247.41
2022-11-24T23:56:28.825Z,96244.25
2022-11-24T23:58:55.458Z,96245.47
